Time;durP1;ratioP1;P1;durP2;ratioP2;P2;SDS_P1;SDS_P2;PMS_P1;PMS_P2;Temp;Humidity;BMP_temperature;BMP_pressure;BME280_temperature;BME280_humidity;BME280_pressure;Samples;Min_cycle;Max_cycle;Signal;HPM_P1;HPM_P2
2023/06/04 00:01:15;;;;;;;6.80;6.50;;;;;;;20.32;100.00;-5367.03;6244840;23;20503;-62
2023/06/04 00:03:43;;;;;;;6.90;6.40;;;;;;;20.35;100.00;-4394.88;6245095;23;20188;-62
2023/06/04 00:06:10;;;;;;;6.23;5.90;;;;;;;20.28;100.00;-4718.84;6244446;23;20180;-62
2023/06/04 00:08:37;;;;;;;6.97;6.47;;;;;;;20.30;100.00;-5042.94;6245026;23;20228;-61
2023/06/04 00:11:04;;;;;;;6.43;5.93;;;;;;;20.37;100.00;-4719.03;6244604;23;20164;-62
2023/06/04 00:13:32;;;;;;;7.45;6.20;;;;;;;20.28;100.00;-6014.81;6244998;23;20614;-62
2023/06/04 00:16:01;;;;;;;7.15;6.57;;;;;;;20.08;100.00;-9897.72;6244563;23;20394;-61
2023/06/04 00:18:27;;;;;;;7.25;6.75;;;;;;;20.14;100.00;-10545.13;6244776;23;20156;-62
2023/06/04 00:20:54;;;;;;;7.33;6.93;;;;;;;20.30;100.00;-9252.78;6244721;23;20567;-62
2023/06/04 00:23:21;;;;;;;7.20;6.63;;;;;;;19.95;100.00;-14420.56;6244945;23;20595;-62
2023/06/04 00:25:48;;;;;;;8.17;7.57;;;;;;;19.53;100.00;-18285.41;6244862;23;20492;-62
2023/06/04 00:28:15;;;;;;;8.13;7.63;;;;;;;19.30;100.00;-18279.94;6244802;23;20203;-60
2023/06/04 00:30:43;;;;;;;8.27;7.73;;;;;;;19.20;100.00;-18275.53;6244732;23;20600;-62
2023/06/04 00:33:10;;;;;;;8.27;7.73;;;;;;;19.24;100.00;-18276.47;6244304;23;20168;-62
2023/06/04 00:35:37;;;;;;;8.57;7.93;;;;;;;19.24;100.00;-18276.59;6218008;23;20652;-61
2023/06/04 00:38:04;;;;;;;8.83;8.17;;;;;;;19.26;100.00;-17632.53;6244585;23;20153;-62
2023/06/04 00:40:31;;;;;;;7.20;6.80;;;;;;;19.28;100.00;-16666.03;6244161;23;20156;-62
2023/06/04 00:42:58;;;;;;;8.00;7.40;;;;;;;19.31;100.00;-16021.88;6244020;23;20210;-61
2023/06/04 00:45:25;;;;;;;7.73;7.17;;;;;;;19.42;100.00;-15701.69;6244041;23;20163;-62
2023/06/04 00:47:55;;;;;;;8.00;7.20;;;;;;;19.41;100.00;-14411.03;6243791;23;20180;-62
2023/06/04 00:50:22;;;;;;;8.57;7.00;;;;;;;19.50;100.00;-14735.41;6244508;23;20249;-61
2023/06/04 00:52:50;;;;;;;6.53;6.20;;;;;;;19.55;100.00;-14736.31;6243846;23;20161;-62
2023/06/04 00:55:18;;;;;;;6.80;5.87;;;;;;;19.68;100.00;-10863.09;6244414;23;20157;-62
2023/06/04 00:57:45;;;;;;;6.20;5.70;;;;;;;19.77;100.00;-6336.41;6243958;23;20157;-61
2023/06/04 01:00:13;;;;;;;6.47;5.93;;;;;;;19.78;100.00;-4717.81;6244574;23;20156;-62
2023/06/04 01:02:44;;;;;;;5.87;5.57;;;;;;;19.70;100.00;-4393.91;6243886;23;20168;-62
2023/06/04 01:05:22;;;;;;;5.53;5.03;;;;;;;19.93;100.00;-3422.34;6244467;23;20457;-61
2023/06/04 01:07:49;;;;;;;10.13;5.67;;;;;;;19.99;100.00;468.44;6243834;23;20184;-62
2023/06/04 01:10:16;;;;;;;5.70;5.40;;;;;;;19.83;100.00;2414.06;6244116;23;20157;-61
2023/06/04 01:12:44;;;;;;;6.40;5.80;;;;;;;20.01;100.00;4364.13;6244608;23;20179;-61
2023/06/04 01:15:12;;;;;;;5.53;5.00;;;;;;;19.93;100.00;1765.94;6244048;23;20161;-62
2023/06/04 01:17:41;;;;;;;6.10;5.70;;;;;;;19.93;100.00;2415.06;6243929;23;20159;-62
2023/06/04 01:20:26;;;;;;;5.93;5.53;;;;;;;19.96;100.00;5338.03;6244140;23;20228;-62
2023/06/04 01:23:15;;;;;;;5.33;5.03;;;;;;;19.97;100.00;12819.41;6243786;23;20187;-62
2023/06/04 01:25:43;;;;;;;5.77;5.23;;;;;;;20.05;100.00;12821.38;6243802;23;20157;-62
2023/06/04 01:28:12;;;;;;;5.47;5.10;;;;;;;19.71;100.00;9233.91;6243660;23;20180;-62
2023/06/04 01:30:42;;;;;;;5.50;5.10;;;;;;;19.94;100.00;7937.91;6243787;23;20157;-62
2023/06/04 01:33:10;;;;;;;5.60;5.23;;;;;;;19.98;100.00;3064.84;6243836;23;20161;-62
2023/06/04 01:35:38;;;;;;;5.77;5.37;;;;;;;19.90;100.00;-1153.59;6243792;23;20164;-62
2023/06/04 01:38:05;;;;;;;5.90;5.50;;;;;;;19.90;100.00;-2126.13;6244130;23;20555;-62
2023/06/04 01:40:32;;;;;;;6.33;5.70;;;;;;;19.89;100.00;-505.16;6243716;23;20236;-62
2023/06/04 01:42:59;;;;;;;5.47;5.07;;;;;;;19.78;100.00;142.81;6243788;23;20202;-61
2023/06/04 01:45:27;;;;;;;5.07;4.73;;;;;;;19.52;100.00;789.72;6243771;23;20167;-62
2023/06/04 01:47:57;;;;;;;5.90;5.40;;;;;;;19.58;100.00;-1154.75;6243544;23;20177;-62
2023/06/04 01:50:24;;;;;;;5.33;5.00;;;;;;;19.17;100.00;1111.41;6243932;23;20210;-61
2023/06/04 01:52:53;;;;;;;6.67;5.23;;;;;;;19.43;100.00;789.13;6244107;23;20187;-62
2023/06/04 01:55:20;;;;;;;8.07;4.77;;;;;;;19.46;100.00;465.16;6244190;23;20156;-62
2023/06/04 01:57:48;;;;;;;8.10;4.37;;;;;;;19.40;100.00;3707.59;6243945;23;20160;-62
2023/06/04 02:00:15;;;;;;;4.03;3.73;;;;;;;19.12;100.00;4028.69;6243774;23;20219;-63
2023/06/04 02:02:45;;;;;;;5.27;3.90;;;;;;;19.26;100.00;5328.22;6243830;23;20686;-62
2023/06/04 02:05:12;;;;;;;4.73;4.13;;;;;;;19.24;100.00;6626.28;6245586;23;20161;-62
2023/06/04 02:07:41;;;;;;;4.47;3.97;;;;;;;19.20;100.00;10523.31;6246015;23;20180;-62
2023/06/04 02:10:11;;;;;;;8.30;4.30;;;;;;;19.11;100.00;13122.13;6245577;23;20243;-62
2023/06/04 02:12:39;;;;;;;7.23;4.00;;;;;;;19.25;100.00;13776.53;6245956;23;20596;-62
2023/06/04 02:15:08;;;;;;;5.00;3.83;;;;;;;19.21;100.00;18333.25;6245950;23;20500;-62
2023/06/04 02:17:37;;;;;;;7.47;3.90;;;;;;;19.34;100.00;19967.28;6245992;23;20473;-63
2023/06/04 02:20:05;;;;;;;3.93;3.73;;;;;;;19.28;100.00;22247.84;6245546;23;20161;-62
2023/06/04 02:22:32;;;;;;;3.93;3.73;;;;;;;19.29;100.00;23553.38;6245625;23;20219;-62
2023/06/04 02:24:59;;;;;;;3.73;3.53;;;;;;;19.18;100.00;25180.34;6245844;23;20495;-63
2023/06/04 02:27:28;;;;;;;3.80;3.50;;;;;;;19.20;100.00;25181.28;6245365;23;20176;-63
2023/06/04 02:29:55;;;;;;;8.37;3.40;;;;;;;19.20;100.00;26160.78;6245854;23;20235;-62
2023/06/04 02:32:22;;;;;;;5.47;3.47;;;;;;;19.22;100.00;24529.13;6245980;23;20591;-62
2023/06/04 02:34:49;;;;;;;3.47;3.23;;;;;;;19.14;100.00;27137.84;6245831;23;20161;-62
2023/06/04 02:37:15;;;;;;;3.80;3.50;;;;;;;19.17;100.00;29099.69;6245701;23;20473;-63
2023/06/04 02:39:42;;;;;;;3.63;3.43;;;;;;;19.19;100.00;32370.34;6245396;23;20222;-62
2023/06/04 02:42:09;;;;;;;3.47;2.87;;;;;;;19.15;100.00;34658.72;6245168;23;20169;-62
2023/06/04 02:44:38;;;;;;;3.17;3.00;;;;;;;19.13;100.00;35967.41;6245240;23;20160;-62
2023/06/04 02:47:05;;;;;;;3.40;3.17;;;;;;;19.09;100.00;38257.47;6245186;23;20263;-63
2023/06/04 02:49:32;;;;;;;3.23;3.13;;;;;;;18.85;100.00;34313.00;6245343;23;20620;-62
2023/06/04 02:51:59;;;;;;;2.77;2.60;;;;;;;18.96;100.00;33665.38;6245667;23;20492;-62
2023/06/04 02:54:26;;;;;;;6.27;3.30;;;;;;;18.87;100.00;37587.84;6245591;23;20614;-61
2023/06/04 02:56:53;;;;;;;3.20;3.00;;;;;;;18.68;100.00;30380.59;6245538;23;20506;-62
2023/06/04 02:59:20;;;;;;;3.93;2.80;;;;;;;18.84;100.00;29082.00;6245453;23;20169;-62
2023/06/04 03:01:49;;;;;;;3.40;3.20;;;;;;;18.66;100.00;30052.84;6245486;23;20615;-61
2023/06/04 03:04:17;;;;;;;3.97;3.13;;;;;;;18.66;100.00;28420.00;6245543;23;20161;-62
2023/06/04 03:06:46;;;;;;;3.43;3.30;;;;;;;18.67;100.00;27767.34;6244921;23;20245;-62
2023/06/04 03:09:13;;;;;;;3.80;3.60;;;;;;;18.45;100.00;26777.69;6245031;23;20215;-62
2023/06/04 03:11:40;;;;;;;3.63;3.30;;;;;;;18.54;100.00;28087.16;6245500;23;20153;-62
2023/06/04 03:14:07;;;;;;;7.70;3.10;;;;;;;18.60;100.00;30049.31;6245352;23;20157;-62
2023/06/04 03:16:34;;;;;;;6.20;3.20;;;;;;;18.52;100.00;33966.44;6245013;23;20163;-62
2023/06/04 03:19:03;;;;;;;3.00;2.80;;;;;;;18.53;100.00;33967.03;6245429;23;20153;-61
2023/06/04 03:21:30;;;;;;;3.23;2.90;;;;;;;18.63;100.00;36262.66;6245190;23;20317;-63
2023/06/04 03:23:57;;;;;;;3.10;2.93;;;;;;;18.63;100.00;42485.94;6244922;23;20215;-63
2023/06/04 03:26:24;;;;;;;3.47;2.83;;;;;;;18.61;100.00;39535.59;6245247;23;20157;-62
2023/06/04 03:28:51;;;;;;;3.80;3.00;;;;;;;18.57;100.00;37568.22;6245130;23;20181;-62
2023/06/04 03:31:18;;;;;;;3.70;3.40;;;;;;;18.49;100.00;38544.91;6244884;23;20157;-61
2023/06/04 03:33:45;;;;;;;3.43;3.00;;;;;;;18.53;100.00;36583.44;6245192;23;20493;-62
2023/06/04 03:36:13;;;;;;;3.73;3.20;;;;;;;18.54;100.00;37566.22;6244742;23;20600;-62
2023/06/04 03:38:40;;;;;;;3.50;3.27;;;;;;;18.57;100.00;38877.81;6245248;23;20157;-62
2023/06/04 03:41:07;;;;;;;3.67;3.33;;;;;;;18.57;100.00;42154.03;6245236;23;20180;-62
2023/06/04 03:43:34;;;;;;;5.30;3.13;;;;;;;18.78;100.00;43808.69;6244820;23;20255;-61
2023/06/04 03:46:01;;;;;;;3.50;3.20;;;;;;;18.99;100.00;48094.03;6244806;23;20183;-63
2023/06/04 03:48:28;;;;;;;3.50;3.27;;;;;;;19.12;100.00;56001.28;6244512;23;20191;-61
2023/06/04 03:50:54;;;;;;;3.83;3.63;;;;;;;19.22;100.00;63927.44;6244614;23;20163;-62
2023/06/04 03:53:23;;;;;;;3.57;3.37;;;;;;;19.09;100.00;63913.19;6244572;23;20157;-62
2023/06/04 03:55:49;;;;;;;3.50;3.20;;;;;;;19.27;100.00;70544.63;6244691;23;20160;-63
2023/06/04 03:58:16;;;;;;;3.73;3.63;;;;;;;19.30;100.00;76178.56;6244595;23;20157;-62
2023/06/04 04:00:43;;;;;;;3.87;3.30;;;;;;;19.31;100.00;70548.88;6244621;23;20160;-63
2023/06/04 04:03:10;;;;;;;3.60;3.40;;;;;;;19.40;100.00;84488.84;6244561;23;20163;-62
2023/06/04 04:05:37;;;;;;;5.47;3.97;;;;;;;19.75;100.00;85536.13;6244900;23;20516;-62
2023/06/04 04:08:05;;;;;;;4.07;3.87;;;;;;;19.67;100.00;101858.47;6244745;23;20566;-62
2023/06/04 04:10:34;;;;;;;3.77;3.63;;;;;;;19.97;100.00;125726.25;6244617;23;20247;-61
2023/06/04 04:13:01;;;;;;;8.07;3.63;;;;;;;19.85;100.00;122674.56;6244603;23;20263;-62
2023/06/04 04:15:28;;;;;;;3.83;3.63;;;;;;;19.89;100.00;125036.31;6244405;23;20232;-61
2023/06/04 04:17:56;;;;;;;9.40;3.10;;;;;;;19.67;100.00;97183.78;6244829;23;20184;-61
2023/06/04 04:20:23;;;;;;;4.13;3.83;;;;;;;19.82;100.00;111255.84;6244449;23;20200;-62
2023/06/04 04:22:50;;;;;;;4.97;3.17;;;;;;;20.06;100.00;113648.53;6244559;23;20157;-62
2023/06/04 04:25:17;;;;;;;3.90;3.30;;;;;;;20.10;100.00;133842.69;6244834;23;20235;-62
2023/06/04 04:27:48;;;;;;;5.83;3.17;;;;;;;20.40;100.00;142598.19;6244012;23;20658;-62
2023/06/04 04:30:16;;;;;;;3.13;3.00;;;;;;;20.52;100.00;151197.22;6244604;23;20157;-62
2023/06/04 04:32:48;;;;;;;3.75;3.55;;;;;;;20.55;100.00;151202.28;6244329;23;20208;-63
2023/06/04 04:35:18;;;;;;;3.80;3.30;;;;;;;20.95;100.00;151305.50;6219166;23;20496;-62
2023/06/04 04:37:45;;;;;;;5.03;3.60;;;;;;;20.93;100.00;151300.38;6244535;23;20588;-62
2023/06/04 04:40:13;;;;;;;3.43;3.10;;;;;;;20.35;100.00;151153.91;6244786;23;20454;-62
2023/06/04 04:42:41;;;;;;;4.13;3.17;;;;;;;20.56;100.00;151206.13;6244309;23;20204;-63
2023/06/04 04:45:11;;;;;;;2.80;2.70;;;;;;;20.16;100.00;151104.19;6244088;23;20163;-61
2023/06/04 04:47:38;;;;;;;3.53;3.23;;;;;;;20.11;100.00;151091.50;6244005;23;20187;-62
2023/06/04 04:50:06;;;;;;;3.00;2.67;;;;;;;20.57;100.00;151208.69;6244018;23;20161;-62
2023/06/04 04:52:32;;;;;;;2.47;2.27;;;;;;;20.42;100.00;151171.72;6244480;23;20175;-62
2023/06/04 04:54:59;;;;;;;3.03;2.43;;;;;;;20.43;100.00;151174.28;6244437;23;20156;-63
2023/06/04 04:57:26;;;;;;;3.60;2.30;;;;;;;20.50;100.00;151192.09;6244515;23;20624;-63
2023/06/04 04:59:53;;;;;;;3.10;2.60;;;;;;;20.25;100.00;151128.38;6244411;23;20215;-62
2023/06/04 05:02:21;;;;;;;6.53;2.23;;;;;;;20.47;100.00;151183.19;6244363;23;20157;-63
2023/06/04 05:04:48;;;;;;;2.37;2.17;;;;;;;20.58;100.00;151211.19;6244069;23;20160;-62
2023/06/04 05:07:15;;;;;;;2.83;2.47;;;;;;;20.80;100.00;151265.97;6243994;23;20161;-62
2023/06/04 05:09:42;;;;;;;2.60;2.20;;;;;;;21.08;100.00;151337.34;6244610;23;20203;-62
2023/06/04 05:12:09;;;;;;;3.73;2.13;;;;;;;21.25;100.00;151379.44;6244280;23;20157;-63
2023/06/04 05:14:36;;;;;;;3.42;2.25;;;;;;;21.37;100.00;151410.00;6244067;23;20196;-62
2023/06/04 05:17:04;;;;;;;3.78;2.25;;;;;;;21.38;100.00;151413.84;6244274;23;20473;-62
2023/06/04 05:19:32;;;;;;;3.33;2.00;;;;;;;21.48;100.00;151436.75;6243926;23;20157;-63
2023/06/04 05:22:00;;;;;;;2.60;2.40;;;;;;;20.91;100.00;151295.31;6244033;23;20165;-61
2023/06/04 05:24:28;;;;;;;2.20;2.00;;;;;;;21.26;100.00;151383.22;6244466;23;20156;-63
2023/06/04 05:26:56;;;;;;;3.45;2.22;;;;;;;20.86;100.00;151282.56;6244178;23;20211;-62
2023/06/04 05:29:23;;;;;;;6.88;2.13;;;;;;;20.81;100.00;151268.53;6243777;23;20177;-62
2023/06/04 05:31:50;;;;;;;3.97;2.10;;;;;;;20.38;100.00;151160.28;6244174;23;20156;-62
2023/06/04 05:34:18;;;;;;;2.33;1.70;;;;;;;20.38;100.00;151161.56;6243782;23;20306;-62
2023/06/04 05:36:46;;;;;;;2.90;2.42;;;;;;;20.39;100.00;151164.09;6244198;23;20263;-62
2023/06/04 05:39:13;;;;;;;3.23;1.97;;;;;;;20.38;100.00;151161.56;6245368;23;20161;-62
2023/06/04 05:41:42;;;;;;;2.60;1.90;;;;;;;20.42;100.00;151171.72;6245966;23;20215;-62
2023/06/04 05:44:08;;;;;;;2.30;2.10;;;;;;;20.52;100.00;151195.94;6245999;23;20232;-63
2023/06/04 05:46:36;;;;;;;2.93;1.77;;;;;;;20.27;100.00;151133.50;6245987;23;20157;-62
2023/06/04 05:49:03;;;;;;;2.47;1.93;;;;;;;20.08;100.00;151086.38;6245853;23;20180;-62
2023/06/04 05:51:31;;;;;;;3.43;2.03;;;;;;;20.27;100.00;151133.50;6245779;23;20163;-62
2023/06/04 05:53:59;;;;;;;1.80;1.70;;;;;;;20.53;100.00;151198.50;6245981;23;20507;-62
2023/06/04 05:56:28;;;;;;;2.37;1.67;;;;;;;20.23;100.00;151123.31;6245860;23;20236;-63
2023/06/04 05:58:54;;;;;;;2.70;1.90;;;;;;;20.56;100.00;151206.13;6246311;23;20161;-62
2023/06/04 06:01:22;;;;;;;2.03;1.87;;;;;;;20.81;100.00;151269.81;6246294;23;20239;-62
2023/06/04 06:03:48;;;;;;;5.82;1.88;;;;;;;20.64;100.00;151226.50;6246054;23;20157;-62
2023/06/04 06:06:15;;;;;;;1.70;1.60;;;;;;;20.41;100.00;151167.94;6245830;23;20157;-63
2023/06/04 06:08:43;;;;;;;2.97;1.80;;;;;;;20.15;100.00;151101.69;6245609;23;20181;-62
2023/06/04 06:11:11;;;;;;;3.27;1.70;;;;;;;20.44;100.00;151176.84;6245733;23;20157;-63
2023/06/04 06:13:38;;;;;;;9.57;1.93;;;;;;;20.83;100.00;151273.66;6246065;23;20168;-63
2023/06/04 06:16:05;;;;;;;5.83;1.57;;;;;;;21.07;100.00;151333.50;6245652;23;20519;-62
2023/06/04 06:18:32;;;;;;;3.03;1.93;;;;;;;21.36;100.00;151408.72;6245949;23;20214;-62
2023/06/04 06:20:59;;;;;;;3.25;2.90;;;;;;;21.44;100.00;151427.84;6245941;23;20199;-62
2023/06/04 06:23:26;;;;;;;5.47;4.93;;;;;;;21.35;100.00;151406.16;6246193;23;20496;-62
2023/06/04 06:25:53;;;;;;;1.90;1.80;;;;;;;21.51;100.00;151444.44;6245707;23;20157;-62
2023/06/04 06:28:21;;;;;;;2.20;1.63;;;;;;;21.73;100.00;151501.75;6244716;23;20203;-62
2023/06/04 06:30:48;;;;;;;3.95;3.53;;;;;;;21.86;100.00;151534.91;6245396;23;20157;-63
2023/06/04 06:33:16;;;;;;;5.97;2.00;;;;;;;22.03;100.00;151577.00;6245779;23;20169;-62
2023/06/04 06:35:46;;;;;;;2.05;1.50;;;;;;;22.25;100.00;151631.84;6245833;23;20539;-62
2023/06/04 06:38:13;;;;;;;6.00;1.40;;;;;;;22.82;100.00;151774.75;6246018;23;20161;-62
2023/06/04 06:40:41;;;;;;;2.00;1.85;;;;;;;22.81;100.00;151773.47;6245348;23;20157;-62
2023/06/04 06:43:07;;;;;;;4.40;2.05;;;;;;;23.13;100.00;151855.09;6245181;23;20284;-62
2023/06/04 06:45:36;;;;;;;2.58;1.33;;;;;;;24.15;100.00;152111.72;6245351;23;20165;-63
2023/06/04 06:48:03;;;;;;;1.85;1.75;;;;;;;24.20;100.00;152123.22;6245408;23;20157;-62
2023/06/04 06:50:30;;;;;;;2.72;1.60;;;;;;;23.95;100.00;152060.63;6245150;23;20203;-62
2023/06/04 06:52:57;;;;;;;1.50;1.40;;;;;;;23.43;100.00;151930.44;6245274;23;20160;-62
2023/06/04 06:55:24;;;;;;;3.13;2.00;;;;;;;23.42;100.00;151926.56;6245402;23;20163;-62
2023/06/04 06:57:51;;;;;;;5.35;1.63;;;;;;;23.94;100.00;152058.06;6245249;23;20157;-63
2023/06/04 07:00:18;;;;;;;2.15;1.92;;;;;;;24.11;100.00;152102.75;6245254;23;20160;-62
2023/06/04 07:02:46;;;;;;;2.28;1.50;;;;;;;24.49;100.00;152197.25;6245859;23;20614;-62
2023/06/04 07:05:17;;;;;;;4.53;1.80;;;;;;;24.40;100.00;152174.31;6245311;23;20157;-62
2023/06/04 07:07:44;;;;;;;3.30;1.60;;;;;;;24.35;100.00;152161.53;6245167;23;20173;-62
2023/06/04 07:10:11;;;;;;;1.58;1.30;;;;;;;24.19;100.00;152120.69;6245316;23;20183;-62
2023/06/04 07:12:38;;;;;;;5.75;1.70;;;;;;;24.35;100.00;152161.53;6245641;23;20161;-63
2023/06/04 07:15:06;;;;;;;2.33;1.50;;;;;;;24.20;100.00;152123.22;6245164;23;20169;-63
2023/06/04 07:17:33;;;;;;;6.05;1.88;;;;;;;24.55;100.00;152213.91;6245170;23;20171;-63
2023/06/04 07:20:03;;;;;;;2.22;1.65;;;;;;;24.21;100.00;152125.78;6245205;23;20167;-62
2023/06/04 07:22:30;;;;;;;3.75;1.77;;;;;;;23.67;100.00;151991.72;6245313;23;20500;-62
2023/06/04 07:24:57;;;;;;;2.63;2.38;;;;;;;23.99;100.00;152072.13;6244938;23;20167;-63
2023/06/04 07:27:24;;;;;;;4.78;1.88;;;;;;;23.76;100.00;152013.41;6245027;23;20160;-62
2023/06/04 07:29:51;;;;;;;5.03;2.55;;;;;;;23.74;100.00;152007.00;6245277;23;20176;-62
2023/06/04 07:32:18;;;;;;;3.92;1.80;;;;;;;23.37;100.00;151913.81;6245434;23;20164;-62
2023/06/04 07:34:45;;;;;;;1.98;1.65;;;;;;;23.56;100.00;151962.31;6244895;23;20167;-63
2023/06/04 07:37:15;;;;;;;2.88;2.20;;;;;;;23.65;100.00;151986.59;6244080;23;20168;-63
2023/06/04 07:39:42;;;;;;;6.03;1.88;;;;;;;23.85;100.00;152036.34;6245204;23;20175;-63
2023/06/04 07:42:09;;;;;;;2.10;1.63;;;;;;;24.40;100.00;152175.56;6244890;23;20168;-61
2023/06/04 07:44:37;;;;;;;2.20;2.03;;;;;;;24.52;100.00;152204.97;6244899;23;20244;-63
2023/06/04 07:47:05;;;;;;;1.58;1.48;;;;;;;23.54;100.00;151957.25;6244831;23;20164;-62
2023/06/04 07:49:32;;;;;;;3.88;2.17;;;;;;;23.79;100.00;152019.78;6244638;23;20181;-63
2023/06/04 07:51:58;;;;;;;3.28;2.10;;;;;;;24.04;100.00;152084.88;6245144;23;20161;-63
2023/06/04 07:54:27;;;;;;;3.75;1.85;;;;;;;24.45;100.00;152187.06;6245085;23;20611;-63
2023/06/04 07:56:55;;;;;;;2.95;1.90;;;;;;;24.72;100.00;152256.03;6245015;23;20157;-62
2023/06/04 07:59:22;;;;;;;4.97;2.30;;;;;;;24.91;100.00;152303.31;6245031;23;20550;-63
2023/06/04 08:01:51;;;;;;;2.00;1.77;;;;;;;25.14;100.00;152360.81;6244467;23;20176;-63
2023/06/04 08:04:18;;;;;;;2.45;2.25;;;;;;;25.26;100.00;152391.47;6244641;23;20215;-63
2023/06/04 08:06:45;;;;;;;2.22;1.95;;;;;;;25.41;100.00;152429.84;6244444;23;20164;-63
2023/06/04 08:09:13;;;;;;;2.03;1.92;;;;;;;24.35;100.00;152161.53;6244941;23;20563;-63
2023/06/04 08:11:42;;;;;;;2.03;1.63;;;;;;;24.48;100.00;152194.75;6244981;23;20168;-62
2023/06/04 08:14:09;;;;;;;4.65;2.05;;;;;;;24.98;100.00;152322.50;6244768;23;20157;-63
2023/06/04 08:16:36;;;;;;;2.88;1.95;;;;;;;24.97;100.00;152319.94;6244910;23;20473;-63
2023/06/04 08:19:03;;;;;;;2.55;1.98;;;;;;;24.54;100.00;152211.31;6218322;23;20560;-63
2023/06/04 08:21:30;;;;;;;2.13;2.00;;;;;;;24.86;100.00;152291.88;6244504;23;20157;-63
2023/06/04 08:23:58;;;;;;;2.25;1.90;;;;;;;24.57;100.00;152218.97;6244411;23;20656;-62
2023/06/04 08:26:26;;;;;;;3.78;2.30;;;;;;;24.92;100.00;152307.16;6244549;23;20165;-63
2023/06/04 08:28:56;;;;;;;2.35;2.15;;;;;;;25.32;100.00;152406.81;6244304;23;20231;-62
2023/06/04 08:31:22;;;;;;;2.83;2.63;;;;;;;24.48;100.00;152196.03;6244461;23;20244;-62
2023/06/04 08:33:49;;;;;;;2.65;2.08;;;;;;;25.07;100.00;152342.94;6244639;23;20603;-63
2023/06/04 08:36:16;;;;;;;3.83;2.20;;;;;;;24.78;100.00;152270.09;6218035;23;20235;-63
2023/06/04 08:38:43;;;;;;;2.60;2.08;;;;;;;24.52;100.00;152206.25;6244230;23;20164;-63
2023/06/04 08:41:16;;;;;;;3.83;2.17;;;;;;;24.37;100.00;152166.63;6244218;23;20157;-62
2023/06/04 08:43:44;;;;;;;6.45;2.40;;;;;;;24.69;100.00;152248.38;6244101;23;20547;-63
2023/06/04 08:46:13;;;;;;;2.20;2.10;;;;;;;24.93;100.00;152309.72;6244253;23;20164;-63
2023/06/04 08:48:41;;;;;;;2.08;1.98;;;;;;;25.00;100.00;152327.59;6244179;23;20187;-62
2023/06/04 08:51:09;;;;;;;1.85;1.75;;;;;;;25.12;100.00;152355.72;6244541;23;20548;-62
2023/06/04 08:53:36;;;;;;;4.60;2.33;;;;;;;25.14;100.00;152362.09;6244676;23;20172;-63
2023/06/04 08:56:03;;;;;;;2.30;1.98;;;;;;;25.23;100.00;152383.81;6244532;23;20247;-63
2023/06/04 08:58:33;;;;;;;2.95;2.55;;;;;;;24.74;100.00;152261.13;6244157;23;20171;-62
2023/06/04 09:01:01;;;;;;;1.73;1.63;;;;;;;25.13;99.28;152358.25;6244047;23;20164;-63
2023/06/04 09:03:31;;;;;;;2.25;1.92;;;;;;;25.49;96.92;152450.28;6244693;23;20157;-62
2023/06/04 09:05:59;;;;;;;3.05;1.90;;;;;;;24.97;100.00;152319.94;6244565;23;20172;-63
2023/06/04 09:08:28;;;;;;;2.22;2.03;;;;;;;25.45;100.00;152440.06;6244051;23;20157;-64
2023/06/04 09:10:55;;;;;;;1.90;1.80;;;;;;;25.76;100.00;152519.31;6217318;23;20252;-63
2023/06/04 09:13:24;;;;;;;2.88;1.88;;;;;;;25.50;100.00;152452.84;6244376;23;20157;-63
2023/06/04 09:16:00;;;;;;;2.30;1.90;;;;;;;25.45;99.96;152440.06;6244324;23;20175;-63
2023/06/04 09:18:29;;;;;;;2.75;1.98;;;;;;;26.05;99.59;152590.91;6243891;23;20240;-63
2023/06/04 09:21:03;;;;;;;4.15;2.10;;;;;;;26.38;100.00;152674.06;6244311;23;20651;-63
2023/06/04 09:23:31;;;;;;;2.45;2.17;;;;;;;26.49;99.59;152703.44;6244126;23;20157;-63
2023/06/04 09:26:07;;;;;;;2.97;1.80;;;;;;;26.49;96.66;152703.44;6243833;23;20199;-63
2023/06/04 09:28:34;;;;;;;1.80;1.70;;;;;;;26.46;95.10;152695.78;6243839;23;20161;-64
2023/06/04 09:31:02;;;;;;;2.08;1.88;;;;;;;26.43;98.45;152688.13;6243849;23;20264;-63
2023/06/04 09:33:30;;;;;;;14.77;1.88;;;;;;;26.28;93.85;152649.75;6244289;23;20234;-64
2023/06/04 09:35:57;;;;;;;1.77;1.67;;;;;;;25.56;95.83;152468.19;6243943;23;20251;-63
2023/06/04 09:38:24;;;;;;;2.42;1.58;;;;;;;25.67;97.34;152496.34;6244455;23;20153;-63
2023/06/04 09:40:52;;;;;;;1.65;1.55;;;;;;;26.17;100.00;152622.88;6217093;23;20165;-64
2023/06/04 09:43:24;;;;;;;3.63;2.40;;;;;;;26.92;98.24;152810.91;6243783;23;20200;-63
2023/06/04 09:45:52;;;;;;;2.03;1.92;;;;;;;27.21;90.65;152885.09;6244256;23;20472;-63
2023/06/04 09:48:23;;;;;;;1.90;1.75;;;;;;;27.62;84.98;152990.09;6243884;23;20211;-63
2023/06/04 09:50:51;;;;;;;1.98;1.88;;;;;;;27.42;78.14;152937.53;6244496;23;20519;-63
2023/06/04 09:53:22;;;;;;;1.77;1.48;;;;;;;27.33;74.82;152915.78;6244352;23;20211;-63
2023/06/04 09:55:58;;;;;;;1.80;1.70;;;;;;;27.52;72.55;152963.22;6244267;23;20607;-64
2023/06/04 09:58:27;;;;;;;3.55;1.83;;;;;;;27.18;72.62;152878.72;6244181;23;20620;-63
2023/06/04 10:00:56;;;;;;;2.78;1.85;;;;;;;27.96;79.57;153075.84;6244043;23;20160;-63
2023/06/04 10:03:25;;;;;;;4.53;1.95;;;;;;;28.24;76.48;153146.25;6244004;23;20157;-63
2023/06/04 10:05:54;;;;;;;3.80;2.00;;;;;;;28.33;73.04;153168.03;6244107;23;20588;-64
2023/06/04 10:08:24;;;;;;;1.67;1.58;;;;;;;27.33;72.74;152914.56;6243704;23;20205;-63
2023/06/04 10:10:52;;;;;;;2.05;1.80;;;;;;;27.56;76.52;152973.44;6243942;23;20203;-64
2023/06/04 10:13:21;;;;;;;2.00;1.80;;;;;;;27.94;77.42;153069.41;6243954;23;20157;-63
2023/06/04 10:15:48;;;;;;;2.30;1.98;;;;;;;27.76;71.03;153023.31;6244041;23;20161;-63
2023/06/04 10:18:15;;;;;;;3.50;1.70;;;;;;;26.65;72.38;152743.13;6243901;23;20157;-63
2023/06/04 10:20:43;;;;;;;5.40;1.77;;;;;;;27.04;74.71;152841.59;6244249;23;20547;-63
2023/06/04 10:23:12;;;;;;;2.03;1.92;;;;;;;27.33;72.57;152915.78;6244312;23;20243;-62
2023/06/04 10:25:39;;;;;;;2.05;1.90;;;;;;;27.52;70.31;152963.22;6244833;23;20157;-63
2023/06/04 10:28:06;;;;;;;3.35;1.42;;;;;;;27.13;70.43;152865.94;6245548;23;20200;-63
2023/06/04 10:30:32;;;;;;;7.50;1.92;;;;;;;26.10;69.70;152603.66;6245841;23;20203;-63
2023/06/04 10:33:00;;;;;;;4.50;2.08;;;;;;;25.73;75.44;152510.38;6245548;23;20152;-63
2023/06/04 10:35:31;;;;;;;2.08;1.88;;;;;;;25.92;69.55;152560.25;6245447;23;20247;-63
2023/06/04 10:38:06;;;;;;;2.03;1.92;;;;;;;26.11;71.62;152606.22;6245940;23;20219;-63
2023/06/04 10:40:36;;;;;;;2.05;1.73;;;;;;;25.97;71.67;152571.69;6245352;23;20179;-63
2023/06/04 10:43:06;;;;;;;3.78;1.67;;;;;;;25.16;73.20;152367.22;6245606;23;20488;-63
2023/06/04 10:45:33;;;;;;;1.48;1.38;;;;;;;25.38;77.44;152422.13;6245349;23;20204;-63
2023/06/04 10:48:01;;;;;;;3.08;1.80;;;;;;;25.21;76.86;152378.69;6245459;23;20163;-63
2023/06/04 10:50:28;;;;;;;1.80;1.70;;;;;;;25.37;78.25;152419.63;6245534;23;20181;-63
2023/06/04 10:52:58;;;;;;;4.32;1.60;;;;;;;25.41;77.68;152431.13;6245401;23;20156;-63
2023/06/04 10:55:26;;;;;;;2.33;1.73;;;;;;;25.87;86.68;152547.44;6245569;23;20202;-63
2023/06/04 10:57:55;;;;;;;2.42;1.80;;;;;;;25.82;74.34;152534.66;6245703;23;20499;-63
2023/06/04 11:00:23;;;;;;;1.58;1.48;;;;;;;26.09;76.04;152602.44;6245821;23;20152;-63
2023/06/04 11:02:52;;;;;;;4.78;1.98;;;;;;;26.23;75.17;152636.94;6245497;23;20157;-63
2023/06/04 11:05:20;;;;;;;6.05;2.38;;;;;;;26.59;72.54;152729.03;6245495;23;20180;-64
2023/06/04 11:07:49;;;;;;;2.78;1.88;;;;;;;26.75;76.45;152769.94;6245275;23;20161;-64
2023/06/04 11:10:20;;;;;;;2.47;2.03;;;;;;;26.77;67.70;152773.81;6245135;23;20187;-64
2023/06/04 11:12:50;;;;;;;4.68;1.50;;;;;;;26.98;69.77;152826.28;6245186;23;20157;-64
2023/06/04 11:15:18;;;;;;;4.75;1.90;;;;;;;26.12;97.98;152610.09;6245243;23;20157;-64
2023/06/04 11:17:53;;;;;;;1.70;1.60;;;;;;;25.21;100.00;152378.69;6219046;23;20540;-63
2023/06/04 11:20:20;;;;;;;3.08;1.50;;;;;;;25.39;100.00;152424.69;6245050;23;20153;-63
2023/06/04 11:22:55;;;;;;;5.82;1.63;;;;;;;25.01;100.00;152330.16;6245298;23;20163;-63
2023/06/04 11:25:23;;;;;;;2.25;1.20;;;;;;;25.01;86.88;152328.88;6244991;23;20157;-63